createdAt,value
2019-01-04T00:01:24.686Z,34.50
2019-01-04T00:03:52.905Z,28.60
2019-01-04T00:06:21.174Z,27.37
2019-01-04T00:08:49.394Z,26.03
2019-01-04T00:11:17.662Z,31.73
2019-01-04T00:13:45.881Z,31.97
2019-01-04T00:16:14.165Z,29.50
2019-01-04T00:18:42.449Z,31.93
2019-01-04T00:21:10.717Z,29.40
2019-01-04T00:23:38.937Z,35.47
2019-01-04T00:26:07.198Z,29.90
2019-01-04T00:28:35.498Z,30.93
2019-01-04T00:31:04.162Z,28.47
2019-01-04T00:33:32.463Z,32.97
2019-01-04T00:36:00.731Z,27.63
2019-01-04T00:38:29.026Z,34.53
2019-01-04T00:40:57.304Z,34.10
2019-01-04T00:43:25.565Z,35.10
2019-01-04T00:45:53.926Z,28.13
2019-01-04T00:48:22.193Z,30.80
2019-01-04T00:50:50.410Z,28.30
2019-01-04T00:53:18.673Z,46.33
2019-01-04T00:55:54.370Z,36.83
2019-01-04T00:58:29.777Z,30.00
2019-01-04T01:01:08.383Z,27.90
2019-01-04T01:03:40.882Z,24.87
2019-01-04T01:06:16.381Z,30.03
2019-01-04T01:09:02.769Z,32.93
2019-01-04T01:11:36.623Z,31.17
2019-01-04T01:14:22.977Z,31.73
2019-01-04T01:17:04.586Z,30.37
2019-01-04T01:19:40.525Z,38.03
2019-01-04T01:22:28.437Z,35.07
2019-01-04T01:24:58.182Z,34.27
2019-01-04T01:27:44.538Z,32.60
2019-01-04T01:30:30.886Z,29.33
2019-01-04T01:33:12.456Z,31.10
2019-01-04T01:35:54.098Z,29.23
2019-01-04T01:38:32.891Z,34.83
2019-01-04T01:41:05.821Z,30.40
2019-01-04T01:43:53.717Z,30.40
2019-01-04T01:46:23.510Z,29.87
2019-01-04T01:48:53.318Z,32.70
2019-01-04T01:51:25.867Z,27.30
2019-01-04T01:53:54.085Z,26.80
2019-01-04T01:56:22.282Z,31.60
2019-01-04T01:58:50.571Z,32.20
2019-01-04T02:01:18.842Z,29.27
2019-01-04T02:03:47.133Z,31.67
2019-01-04T02:06:15.331Z,30.73
2019-01-04T02:08:43.624Z,28.73
2019-01-04T02:11:11.962Z,29.33
2019-01-04T02:13:40.182Z,31.73
2019-01-04T02:16:08.381Z,30.50
2019-01-04T02:18:36.601Z,28.10
2019-01-04T02:21:04.801Z,28.93
2019-01-04T02:23:33.022Z,30.10
2019-01-04T02:26:01.222Z,30.03
2019-01-04T02:28:29.516Z,30.63
2019-01-04T02:30:57.780Z,31.47
2019-01-04T02:33:26.070Z,34.37
2019-01-04T02:35:54.330Z,33.17
2019-01-04T02:38:22.546Z,29.60
2019-01-04T02:40:50.746Z,27.77
2019-01-04T02:43:19.037Z,29.00
2019-01-04T02:45:47.299Z,30.17
2019-01-04T02:48:15.602Z,27.40
2019-01-04T02:50:43.870Z,32.47
2019-01-04T02:53:12.095Z,28.10
2019-01-04T02:55:40.361Z,29.80
2019-01-04T02:58:08.590Z,30.87
2019-01-04T03:00:36.870Z,31.10
2019-01-04T03:03:05.166Z,30.57
2019-01-04T03:05:33.445Z,32.37
2019-01-04T03:08:01.702Z,27.90
2019-01-04T03:10:29.997Z,27.60
2019-01-04T03:12:58.263Z,27.93
2019-01-04T03:15:26.473Z,25.70
2019-01-04T03:17:54.688Z,29.40
2019-01-04T03:20:22.978Z,24.63
2019-01-04T03:22:51.172Z,29.90
2019-01-04T03:25:19.459Z,21.07
2019-01-04T03:27:47.727Z,26.73
2019-01-04T03:30:16.043Z,26.43
2019-01-04T03:32:44.314Z,25.33
2019-01-04T03:35:12.615Z,17.90
2019-01-04T03:37:40.873Z,27.50
2019-01-04T03:40:09.561Z,18.13
2019-01-04T03:42:37.773Z,29.93
2019-01-04T03:45:06.257Z,21.23
2019-01-04T03:47:34.538Z,22.60
2019-01-04T03:50:02.940Z,20.13
2019-01-04T03:52:31.166Z,22.17
2019-01-04T03:54:59.388Z,17.70
2019-01-04T03:57:27.647Z,17.97
2019-01-04T03:59:55.934Z,23.17
2019-01-04T04:02:24.129Z,21.90
2019-01-04T04:04:52.346Z,18.27
2019-01-04T04:07:20.622Z,21.03
2019-01-04T04:09:48.835Z,24.13
2019-01-04T04:12:17.101Z,21.20
2019-01-04T04:14:45.398Z,24.53
2019-01-04T04:17:13.699Z,20.10
2019-01-04T04:19:41.962Z,21.53
2019-01-04T04:22:10.230Z,22.60
2019-01-04T04:24:38.526Z,19.87
2019-01-04T04:27:06.802Z,27.03
2019-01-04T04:29:35.070Z,25.30
2019-01-04T04:32:03.285Z,21.97
2019-01-04T04:34:31.474Z,20.00
2019-01-04T04:36:59.780Z,28.87
2019-01-04T04:39:28.263Z,19.80
2019-01-04T04:41:56.555Z,23.17
2019-01-04T04:44:24.746Z,23.23
2019-01-04T04:46:53.038Z,23.73
2019-01-04T04:49:21.235Z,23.67
2019-01-04T04:51:49.602Z,21.50
2019-01-04T04:54:17.798Z,22.23
2019-01-04T04:56:46.099Z,27.90
2019-01-04T04:59:14.378Z,22.40
2019-01-04T05:01:42.662Z,20.73
2019-01-04T05:04:10.858Z,21.63
2019-01-04T05:06:39.077Z,21.30
2019-01-04T05:09:07.274Z,24.93
2019-01-04T05:11:35.566Z,28.60
2019-01-04T05:14:03.834Z,27.60
2019-01-04T05:16:32.133Z,24.10
2019-01-04T05:19:00.342Z,23.27
2019-01-04T05:21:28.637Z,25.07
2019-01-04T05:23:56.942Z,26.27
2019-01-04T05:26:25.244Z,25.97
2019-01-04T05:28:53.512Z,28.30
2019-01-04T05:31:21.806Z,24.60
2019-01-04T05:33:50.081Z,22.13
2019-01-04T05:36:18.358Z,35.07
2019-01-04T05:38:46.633Z,30.93
2019-01-04T05:41:14.921Z,22.33
2019-01-04T05:43:43.117Z,22.13
2019-01-04T05:46:11.323Z,26.00
2019-01-04T05:48:39.617Z,23.40
2019-01-04T05:51:07.847Z,24.37
2019-01-04T05:53:36.110Z,27.07
2019-01-04T05:56:04.325Z,22.67
2019-01-04T05:58:32.598Z,24.13
2019-01-04T06:01:00.816Z,22.23
2019-01-04T06:03:29.089Z,30.50
2019-01-04T06:05:57.281Z,28.00
2019-01-04T06:08:25.503Z,27.00
2019-01-04T06:10:53.770Z,27.50
2019-01-04T06:13:22.065Z,24.00
2019-01-04T06:15:50.263Z,24.13
2019-01-04T06:18:18.493Z,24.00
2019-01-04T06:20:46.763Z,25.67
2019-01-04T06:23:16.082Z,28.70
2019-01-04T06:25:44.285Z,30.13
2019-01-04T06:28:12.566Z,21.47
2019-01-04T06:30:40.765Z,25.27
2019-01-04T06:33:08.988Z,24.33
2019-01-04T06:35:37.263Z,27.37
2019-01-04T06:38:05.550Z,22.80
2019-01-04T06:40:33.743Z,23.43
2019-01-04T06:43:02.030Z,21.60
2019-01-04T06:45:30.299Z,29.67
2019-01-04T06:47:58.590Z,25.97
2019-01-04T06:50:26.790Z,20.70
2019-01-04T06:52:55.003Z,23.50
2019-01-04T06:55:39.802Z,25.63
2019-01-04T06:58:08.075Z,23.37
2019-01-04T07:00:36.290Z,28.30
2019-01-04T07:03:04.510Z,26.13
2019-01-04T07:05:32.775Z,27.23
2019-01-04T07:08:01.073Z,24.47
2019-01-04T07:10:29.353Z,25.90
2019-01-04T07:12:57.574Z,23.90
2019-01-04T07:15:25.834Z,23.40
2019-01-04T07:17:54.054Z,27.50
2019-01-04T07:20:22.327Z,21.37
2019-01-04T07:22:50.594Z,26.63
2019-01-04T07:25:18.889Z,20.23
2019-01-04T07:27:47.086Z,19.33
2019-01-04T07:30:15.310Z,28.13
2019-01-04T07:32:43.605Z,19.40
2019-01-04T07:35:11.821Z,23.27
2019-01-04T07:37:40.095Z,25.40
2019-01-04T07:40:09.193Z,23.50
2019-01-04T07:42:37.429Z,24.23
2019-01-04T07:45:06.994Z,22.97
2019-01-04T07:47:35.257Z,22.97
2019-01-04T07:50:03.749Z,23.97
2019-01-04T07:52:32.014Z,26.97
2019-01-04T07:55:00.237Z,28.00
2019-01-04T07:57:28.429Z,28.50
2019-01-04T07:59:56.695Z,27.70
2019-01-04T08:02:32.558Z,23.67
2019-01-04T08:05:00.844Z,25.30
2019-01-04T08:07:29.110Z,23.43
2019-01-04T08:09:57.343Z,27.03
2019-01-04T08:12:25.609Z,23.57
2019-01-04T08:14:53.914Z,29.90
2019-01-04T08:17:22.114Z,22.93
2019-01-04T08:19:50.406Z,24.30
2019-01-04T08:22:18.666Z,23.23
2019-01-04T08:24:46.893Z,26.70
2019-01-04T08:27:15.162Z,27.27
2019-01-04T08:29:43.377Z,25.90
2019-01-04T08:32:11.570Z,30.70
2019-01-04T08:34:39.795Z,25.10
2019-01-04T08:37:08.322Z,25.40
2019-01-04T08:39:36.609Z,26.80
2019-01-04T08:42:04.889Z,28.50
2019-01-04T08:44:33.180Z,26.47
2019-01-04T08:47:01.459Z,26.70
2019-01-04T08:49:29.661Z,23.87
2019-01-04T08:51:57.954Z,26.53
2019-01-04T08:54:26.234Z,23.17
2019-01-04T08:56:54.586Z,25.47
2019-01-04T08:59:22.830Z,24.03
2019-01-04T09:01:51.129Z,24.77
2019-01-04T09:04:19.394Z,24.70
2019-01-04T09:06:47.691Z,24.33
2019-01-04T09:09:15.949Z,26.60
2019-01-04T09:11:44.170Z,25.50
2019-01-04T09:14:12.366Z,23.73
2019-01-04T09:16:40.582Z,24.30
2019-01-04T09:19:08.850Z,26.47
2019-01-04T09:21:37.066Z,27.67
2019-01-04T09:24:05.330Z,25.40
2019-01-04T09:26:33.626Z,27.23
2019-01-04T09:29:01.814Z,23.17
2019-01-04T09:31:30.030Z,32.90
2019-01-04T09:33:58.233Z,25.53
2019-01-04T09:36:26.522Z,25.50
2019-01-04T09:38:54.710Z,23.83
2019-01-04T09:41:24.466Z,23.50
2019-01-04T09:43:52.741Z,21.10
2019-01-04T09:46:21.005Z,25.70
2019-01-04T09:48:49.230Z,28.43
2019-01-04T09:51:17.426Z,24.33
2019-01-04T09:53:45.723Z,23.53
2019-01-04T09:56:13.978Z,22.60
2019-01-04T09:58:42.189Z,25.33
2019-01-04T10:01:10.382Z,24.70
2019-01-04T10:03:38.673Z,27.00
2019-01-04T10:06:07.939Z,24.63
2019-01-04T10:08:36.242Z,24.67
2019-01-04T10:11:04.518Z,25.10
2019-01-04T10:13:32.740Z,22.60
2019-01-04T10:16:01.002Z,23.20
2019-01-04T10:18:31.341Z,21.23
2019-01-04T10:20:59.598Z,31.73
2019-01-04T10:23:27.822Z,22.03
2019-01-04T10:25:56.013Z,23.40
2019-01-04T10:28:24.567Z,19.30
2019-01-04T10:30:52.830Z,21.03
2019-01-04T10:33:21.042Z,23.60
2019-01-04T10:35:49.503Z,22.90
2019-01-04T10:38:17.794Z,23.27
2019-01-04T10:40:46.058Z,23.00
2019-01-04T10:43:14.278Z,22.20
2019-01-04T10:45:42.553Z,22.10
2019-01-04T10:48:10.837Z,21.27
2019-01-04T10:50:39.041Z,22.73
2019-01-04T10:53:07.338Z,20.23
2019-01-04T10:55:35.594Z,19.83
2019-01-04T10:58:03.889Z,22.00
2019-01-04T11:00:32.157Z,20.63
2019-01-04T11:03:01.982Z,23.90
2019-01-04T11:05:30.198Z,18.27
2019-01-04T11:07:58.483Z,23.23
2019-01-04T11:10:26.670Z,19.30
2019-01-04T11:12:54.871Z,27.67
2019-01-04T11:15:23.225Z,21.07
2019-01-04T11:17:51.418Z,17.80
2019-01-04T11:20:32.997Z,22.00
2019-01-04T11:23:02.414Z,18.83
2019-01-04T11:25:34.949Z,25.13
2019-01-04T11:28:07.398Z,20.10
2019-01-04T11:30:37.222Z,26.80
2019-01-04T11:33:05.491Z,21.63
2019-01-04T11:35:35.314Z,22.00
2019-01-04T11:38:05.047Z,23.70
2019-01-04T11:40:37.626Z,18.57
2019-01-04T11:43:07.443Z,22.27
2019-01-04T11:45:46.314Z,18.03
2019-01-04T11:48:16.135Z,21.87
2019-01-04T11:50:55.050Z,17.00
2019-01-04T11:53:23.318Z,13.70
2019-01-04T11:55:51.530Z,15.67
2019-01-04T11:58:19.722Z,12.37
2019-01-04T12:00:47.934Z,13.63
2019-01-04T12:03:16.130Z,12.47
2019-01-04T12:05:44.419Z,14.60
2019-01-04T12:08:12.681Z,17.67
2019-01-04T12:10:43.864Z,20.20
2019-01-04T12:13:12.270Z,16.23
2019-01-04T12:15:42.190Z,15.60
2019-01-04T12:18:10.390Z,17.47
2019-01-04T12:20:38.678Z,20.70
2019-01-04T12:23:11.124Z,15.50
2019-01-04T12:25:36.879Z,17.07
2019-01-04T12:28:05.142Z,15.63
2019-01-04T12:30:33.334Z,17.20
2019-01-04T12:33:01.546Z,12.47
2019-01-04T12:35:29.738Z,13.87
2019-01-04T12:37:57.965Z,15.27
2019-01-04T12:40:26.162Z,19.67
2019-01-04T12:42:54.446Z,13.57
2019-01-04T12:45:22.719Z,14.37
2019-01-04T12:47:51.014Z,14.70
2019-01-04T12:50:19.270Z,20.97
2019-01-04T12:52:47.488Z,13.97
2019-01-04T12:55:15.755Z,17.23
2019-01-04T12:57:44.018Z,12.87
2019-01-04T13:00:12.690Z,18.67
2019-01-04T13:02:40.957Z,14.50
2019-01-04T13:05:09.243Z,14.20
2019-01-04T13:07:37.446Z,17.40
2019-01-04T13:10:06.130Z,16.27
2019-01-04T13:12:34.396Z,15.87
2019-01-04T13:15:02.757Z,16.77
2019-01-04T13:17:31.017Z,20.37
2019-01-04T13:19:59.278Z,18.60
2019-01-04T13:22:27.541Z,16.10
2019-01-04T13:24:55.730Z,18.83
2019-01-04T13:27:24.021Z,14.60
2019-01-04T13:29:52.218Z,20.73
2019-01-04T13:32:20.446Z,19.13
2019-01-04T13:34:50.718Z,20.10
2019-01-04T13:37:18.980Z,17.77
2019-01-04T13:39:47.500Z,19.43
2019-01-04T13:42:15.789Z,13.83
2019-01-04T13:44:44.130Z,19.03
2019-01-04T13:47:12.345Z,15.67
2019-01-04T13:49:40.541Z,20.13
2019-01-04T13:52:08.733Z,16.40
2019-01-04T13:54:37.045Z,16.87
2019-01-04T13:57:05.442Z,14.50
2019-01-04T13:59:33.726Z,18.73
2019-01-04T14:02:01.930Z,16.80
2019-01-04T14:04:30.287Z,16.20
2019-01-04T14:06:58.554Z,16.40
2019-01-04T14:09:26.850Z,15.93
2019-01-04T14:11:55.049Z,16.73
2019-01-04T14:14:23.265Z,18.87
2019-01-04T14:16:51.466Z,14.03
2019-01-04T14:19:19.762Z,20.80
2019-01-04T14:21:48.037Z,15.03
2019-01-04T14:24:16.322Z,14.10
2019-01-04T14:26:45.437Z,18.60
2019-01-04T14:29:13.654Z,18.10
2019-01-04T14:31:41.923Z,15.17
2019-01-04T14:34:10.273Z,13.90
2019-01-04T14:36:38.465Z,16.13
2019-01-04T14:39:06.930Z,16.30
2019-01-04T14:41:35.198Z,20.60
2019-01-04T14:44:03.415Z,67.57
2019-01-04T14:46:31.602Z,12.90
2019-01-04T14:48:59.838Z,15.80
2019-01-04T14:51:28.030Z,11.60
2019-01-04T14:53:56.317Z,17.30
2019-01-04T14:56:24.507Z,12.87
2019-01-04T14:58:52.736Z,14.07
2019-01-04T15:01:21.001Z,15.53
2019-01-04T15:03:49.195Z,16.27
2019-01-04T15:06:17.486Z,15.90
2019-01-04T15:08:45.760Z,19.47
2019-01-04T15:11:14.047Z,15.40
2019-01-04T15:13:42.315Z,17.03
2019-01-04T15:16:10.527Z,14.97
2019-01-04T15:18:38.797Z,13.63
2019-01-04T15:21:07.018Z,15.10
2019-01-04T15:23:35.206Z,15.70
2019-01-04T15:26:03.513Z,20.53
2019-01-04T15:28:31.706Z,16.00
2019-01-04T15:30:59.930Z,17.53
2019-01-04T15:33:28.129Z,18.00
2019-01-04T15:35:56.418Z,14.60
2019-01-04T15:38:24.606Z,17.40
2019-01-04T15:40:52.914Z,15.33
2019-01-04T15:43:21.192Z,14.87
2019-01-04T15:45:49.469Z,12.03
2019-01-04T15:48:17.662Z,27.00
2019-01-04T15:50:45.877Z,11.87
2019-01-04T15:53:14.074Z,13.73
2019-01-04T15:55:42.358Z,14.40
2019-01-04T15:58:10.548Z,14.00
2019-01-04T16:00:38.842Z,21.67
2019-01-04T16:03:07.127Z,19.90
2019-01-04T16:05:35.410Z,15.20
2019-01-04T16:08:03.674Z,14.03
2019-01-04T16:10:32.609Z,14.20
2019-01-04T16:13:00.810Z,16.80
2019-01-04T16:15:29.096Z,12.73
2019-01-04T16:17:57.359Z,20.60
2019-01-04T16:20:25.631Z,15.30
2019-01-04T16:22:53.841Z,16.67
2019-01-04T16:25:22.038Z,13.30
2019-01-04T16:27:50.322Z,14.70
2019-01-04T16:30:18.510Z,16.10
2019-01-04T16:32:46.745Z,15.80
2019-01-04T16:35:15.022Z,14.67
2019-01-04T16:37:43.322Z,14.70
2019-01-04T16:40:11.949Z,16.40
2019-01-04T16:42:40.157Z,14.90
2019-01-04T16:45:08.418Z,11.97
2019-01-04T16:47:36.766Z,15.47
2019-01-04T16:50:05.774Z,14.53
2019-01-04T16:52:34.035Z,13.63
2019-01-04T16:55:02.330Z,14.87
2019-01-04T16:57:30.610Z,19.27
2019-01-04T16:59:58.905Z,17.70
2019-01-04T17:02:27.170Z,17.40
2019-01-04T17:04:55.393Z,14.43
2019-01-04T17:07:23.606Z,14.73
2019-01-04T17:09:51.969Z,17.23
2019-01-04T17:12:20.234Z,16.87
2019-01-04T17:14:48.461Z,19.50
2019-01-04T17:17:16.661Z,19.83
2019-01-04T17:19:44.858Z,17.83
2019-01-04T17:22:13.146Z,22.37
2019-01-04T17:24:41.345Z,17.53
2019-01-04T17:27:09.645Z,19.20
2019-01-04T17:29:37.990Z,21.03
2019-01-04T17:32:06.284Z,20.00
2019-01-04T17:34:34.553Z,18.50
2019-01-04T17:37:02.778Z,22.27
2019-01-04T17:39:31.053Z,22.50
2019-01-04T17:41:59.266Z,16.30
2019-01-04T17:44:27.466Z,19.53
2019-01-04T17:46:55.749Z,15.97
2019-01-04T17:49:24.199Z,19.83
2019-01-04T17:51:52.393Z,17.60
2019-01-04T17:54:20.609Z,19.40
2019-01-04T17:56:53.731Z,19.17
2019-01-04T17:59:21.994Z,15.03
2019-01-04T18:01:50.264Z,21.50
2019-01-04T18:04:18.557Z,17.87
2019-01-04T18:06:46.826Z,13.37
2019-01-04T18:09:15.118Z,23.60
2019-01-04T18:11:43.321Z,20.47
2019-01-04T18:14:11.533Z,17.43
2019-01-04T18:16:39.744Z,18.70
2019-01-04T18:19:09.569Z,35.43
2019-01-04T18:21:37.761Z,22.77
2019-01-04T18:24:05.979Z,13.90
2019-01-04T18:26:34.242Z,17.00
2019-01-04T18:29:02.450Z,15.63
2019-01-04T18:31:30.715Z,10.50
2019-01-04T18:33:59.073Z,12.00
2019-01-04T18:36:27.265Z,12.27
2019-01-04T18:38:55.476Z,16.20
2019-01-04T18:41:23.667Z,11.93
2019-01-04T18:43:51.958Z,10.83
2019-01-04T18:46:20.230Z,13.73
2019-01-04T18:48:48.525Z,11.30
2019-01-04T18:51:16.777Z,10.30
2019-01-04T18:53:46.370Z,9.63
2019-01-04T18:56:14.632Z,8.80
2019-01-04T18:58:42.923Z,9.47
2019-01-04T19:01:13.744Z,13.30
2019-01-04T19:03:41.130Z,12.47
2019-01-04T19:06:09.317Z,14.10
2019-01-04T19:08:37.532Z,13.40
2019-01-04T19:11:05.802Z,13.30
2019-01-04T19:13:34.098Z,28.03
2019-01-04T19:16:02.371Z,16.53
2019-01-04T19:18:30.654Z,9.87
2019-01-04T19:20:58.850Z,12.57
2019-01-04T19:23:27.129Z,14.70
2019-01-04T19:25:55.402Z,15.80
2019-01-04T19:28:23.662Z,16.10
2019-01-04T19:30:51.934Z,12.70
2019-01-04T19:33:20.193Z,13.20
2019-01-04T19:35:48.482Z,13.40
2019-01-04T19:38:16.758Z,11.70
2019-01-04T19:40:44.973Z,11.83
2019-01-04T19:43:13.162Z,15.90
2019-01-04T19:45:41.459Z,11.70
2019-01-04T19:48:09.653Z,10.87
2019-01-04T19:50:37.938Z,12.00
2019-01-04T19:53:06.203Z,12.13
2019-01-04T19:55:34.485Z,14.13
2019-01-04T19:58:02.670Z,16.97
2019-01-04T20:00:30.877Z,18.47
2019-01-04T20:02:59.074Z,14.43
2019-01-04T20:05:33.393Z,17.03
2019-01-04T20:08:04.850Z,15.43
2019-01-04T20:10:50.944Z,14.80
2019-01-04T20:13:37.302Z,13.50
2019-01-04T20:16:17.638Z,16.53
2019-01-04T20:18:47.480Z,15.60
2019-01-04T20:21:20.421Z,13.63
2019-01-04T20:23:59.046Z,12.80
2019-01-04T20:26:28.897Z,14.87
2019-01-04T20:28:58.739Z,14.73
2019-01-04T20:31:37.426Z,16.20
2019-01-04T20:34:07.329Z,16.43
2019-01-04T20:36:48.954Z,15.60
2019-01-04T20:39:24.790Z,15.03
2019-01-04T20:41:57.190Z,19.67
2019-01-04T20:44:36.026Z,14.93
2019-01-04T20:47:11.547Z,15.43
2019-01-04T20:49:41.449Z,15.90
2019-01-04T20:52:26.432Z,16.83
2019-01-04T20:55:05.526Z,15.47
2019-01-04T20:57:44.514Z,16.13
2019-01-04T21:00:14.417Z,19.63
2019-01-04T21:02:59.498Z,17.53
2019-01-04T21:05:37.994Z,19.30
2019-01-04T21:08:24.086Z,13.30
2019-01-04T21:11:08.775Z,20.00
2019-01-04T21:13:54.786Z,16.77
2019-01-04T21:16:30.783Z,17.57
2019-01-04T21:19:03.374Z,15.30
2019-01-04T21:21:36.033Z,14.70
2019-01-04T21:24:22.115Z,15.17
2019-01-04T21:27:08.135Z,14.73
2019-01-04T21:29:38.062Z,16.47
2019-01-04T21:32:25.806Z,20.33
2019-01-04T21:34:58.670Z,15.30
2019-01-04T21:37:46.534Z,14.30
2019-01-04T21:40:25.206Z,11.90
2019-01-04T21:43:11.563Z,16.53
2019-01-04T21:45:56.308Z,16.20
2019-01-04T21:48:26.218Z,18.43
2019-01-04T21:51:01.822Z,16.23
2019-01-04T21:53:40.618Z,33.30
2019-01-04T21:56:22.738Z,16.57
2019-01-04T21:59:08.782Z,17.20
2019-01-04T22:01:47.638Z,13.40
2019-01-04T22:04:33.894Z,16.00
2019-01-04T22:07:20.629Z,16.73
2019-01-04T22:10:06.623Z,16.03
2019-01-04T22:12:39.582Z,19.03
2019-01-04T22:15:12.490Z,13.53
2019-01-04T22:17:45.354Z,12.40
2019-01-04T22:20:18.202Z,15.83
2019-01-04T22:22:48.069Z,17.60
2019-01-04T22:25:27.041Z,12.87
2019-01-04T22:27:59.638Z,15.23
2019-01-04T22:30:35.306Z,16.83
2019-01-04T22:33:08.162Z,14.27
2019-01-04T22:35:43.737Z,15.20
2019-01-04T22:38:16.594Z,13.50
2019-01-04T22:41:02.570Z,14.37
2019-01-04T22:43:32.678Z,11.97
2019-01-04T22:46:14.614Z,13.80
2019-01-04T22:49:02.643Z,11.73
2019-01-04T22:51:48.910Z,17.53
2019-01-04T22:54:35.026Z,12.13
2019-01-04T22:57:04.974Z,12.20
2019-01-04T22:59:34.801Z,13.30
2019-01-04T23:02:20.878Z,12.10
2019-01-04T23:04:56.518Z,12.33
2019-01-04T23:07:29.127Z,13.10
2019-01-04T23:10:15.302Z,11.60
2019-01-04T23:12:54.047Z,10.73
2019-01-04T23:15:40.418Z,14.20
2019-01-04T23:18:28.424Z,12.33
2019-01-04T23:21:05.358Z,11.60
2019-01-04T23:23:51.314Z,11.53
2019-01-04T23:26:37.339Z,10.77
2019-01-04T23:29:10.202Z,12.27
2019-01-04T23:31:56.487Z,13.50
2019-01-04T23:34:28.989Z,13.03
2019-01-04T23:37:15.046Z,11.60
2019-01-04T23:40:02.654Z,11.63
2019-01-04T23:42:48.534Z,10.97
2019-01-04T23:45:30.166Z,12.33
2019-01-04T23:48:09.145Z,10.07
2019-01-04T23:50:51.047Z,11.60
2019-01-04T23:53:43.007Z,11.10
2019-01-04T23:56:28.961Z,11.40
2019-01-04T23:59:10.664Z,10.70
